createdAt,value
2023-03-23T00:01:02.296Z,86.01
2023-03-23T00:03:33.196Z,85.77
2023-03-23T00:06:05.918Z,86.01
2023-03-23T00:08:47.397Z,86.08
2023-03-23T00:11:22.717Z,85.94
2023-03-23T00:13:55.950Z,85.73
2023-03-23T00:16:31.518Z,85.93
2023-03-23T00:19:03.697Z,85.80
2023-03-23T00:21:38.194Z,85.79
2023-03-23T00:24:12.080Z,85.60
2023-03-23T00:26:48.252Z,85.58
2023-03-23T00:29:22.440Z,85.55
2023-03-23T00:31:52.735Z,85.46
2023-03-23T00:34:26.017Z,85.52
2023-03-23T00:36:58.162Z,85.93
2023-03-23T00:39:30.160Z,85.76
2023-03-23T00:42:01.886Z,85.54
2023-03-23T00:44:36.490Z,85.51
2023-03-23T00:47:06.376Z,85.37
2023-03-23T00:49:36.581Z,85.32
2023-03-23T00:52:09.702Z,85.24
2023-03-23T00:54:43.292Z,85.09
2023-03-23T00:57:12.951Z,85.07
2023-03-23T00:59:42.481Z,84.91
2023-03-23T01:02:12.101Z,84.82
2023-03-23T01:04:46.945Z,84.66
2023-03-23T01:07:19.310Z,84.71
2023-03-23T01:09:49.449Z,84.77
2023-03-23T01:12:18.940Z,84.70
2023-03-23T01:15:02.879Z,84.64
2023-03-23T01:17:32.661Z,84.68
2023-03-23T01:20:02.443Z,84.65
2023-03-23T01:22:37.814Z,84.57
2023-03-23T01:25:13.090Z,84.55
2023-03-23T01:27:43.065Z,84.57
2023-03-23T01:30:15.133Z,84.57
2023-03-23T01:32:44.761Z,84.51
2023-03-23T01:35:15.813Z,84.48
2023-03-23T01:37:48.747Z,84.47
2023-03-23T01:40:18.776Z,84.40
2023-03-23T01:42:51.317Z,84.35
2023-03-23T01:45:35.832Z,84.31
2023-03-23T01:48:13.654Z,84.16
2023-03-23T01:50:58.063Z,84.13
2023-03-23T01:53:36.023Z,84.06
2023-03-23T01:56:13.713Z,84.01
2023-03-23T01:58:43.687Z,83.96
2023-03-23T02:01:16.561Z,83.92
2023-03-23T02:03:52.717Z,83.86
2023-03-23T02:06:22.641Z,83.85
2023-03-23T02:08:54.962Z,83.87
2023-03-23T02:11:25.150Z,83.87
2023-03-23T02:13:55.603Z,83.91
2023-03-23T02:16:36.550Z,83.90
2023-03-23T02:19:30.866Z,83.95
2023-03-23T02:22:36.660Z,83.81
2023-03-23T02:25:38.437Z,83.79
2023-03-23T02:28:37.793Z,83.84
2023-03-23T02:31:29.566Z,83.80
2023-03-23T02:34:16.120Z,83.93
2023-03-23T02:36:54.309Z,84.33
2023-03-23T02:39:31.028Z,84.41
2023-03-23T02:42:14.339Z,84.39
2023-03-23T02:44:51.079Z,84.38
2023-03-23T02:47:26.502Z,84.43
2023-03-23T02:50:00.250Z,84.45
2023-03-23T02:52:33.738Z,84.43
2023-03-23T02:55:08.258Z,84.41
2023-03-23T02:57:40.216Z,84.51
2023-03-23T03:00:15.646Z,84.51
2023-03-23T03:02:48.652Z,84.50
2023-03-23T03:05:36.264Z,84.41
2023-03-23T03:08:21.003Z,84.36
2023-03-23T03:10:57.551Z,84.26
2023-03-23T03:13:39.728Z,84.18
2023-03-23T03:16:21.495Z,84.09
2023-03-23T03:18:58.761Z,84.04
2023-03-23T03:21:38.368Z,83.97
2023-03-23T03:24:25.095Z,83.89
2023-03-23T03:27:00.442Z,83.80
2023-03-23T03:29:35.907Z,83.71
2023-03-23T03:32:10.937Z,83.62
2023-03-23T03:34:41.312Z,83.46
2023-03-23T03:37:15.970Z,83.46
2023-03-23T03:39:45.642Z,83.43
2023-03-23T03:42:15.323Z,83.39
2023-03-23T03:45:15.098Z,83.32
2023-03-23T03:47:44.742Z,83.16
2023-03-23T03:50:15.454Z,83.16
2023-03-23T03:52:47.497Z,83.21
2023-03-23T03:55:18.514Z,83.17
2023-03-23T03:57:48.387Z,83.26
2023-03-23T04:00:19.658Z,83.16
2023-03-23T04:02:55.282Z,83.13
2023-03-23T04:05:43.349Z,83.08
2023-03-23T04:08:16.056Z,82.98
2023-03-23T04:10:45.752Z,82.92
2023-03-23T04:13:15.465Z,82.93
2023-03-23T04:16:07.219Z,82.92
2023-03-23T04:18:37.981Z,82.76
2023-03-23T04:21:09.841Z,82.72
2023-03-23T04:23:42.968Z,82.65
2023-03-23T04:26:14.231Z,82.57
2023-03-23T04:28:44.343Z,82.43
2023-03-23T04:31:14.050Z,82.29
2023-03-23T04:33:59.959Z,82.29
2023-03-23T04:36:57.041Z,82.40
2023-03-23T04:39:23.187Z,82.39
2023-03-23T04:41:52.794Z,82.35
2023-03-23T04:44:22.618Z,82.27
2023-03-23T04:46:55.372Z,82.13
2023-03-23T04:49:24.872Z,81.97
2023-03-23T04:51:54.641Z,82.06
2023-03-23T04:54:30.412Z,81.82
2023-03-23T04:57:00.039Z,81.73
2023-03-23T04:59:31.906Z,81.89
2023-03-23T05:02:14.642Z,81.79
2023-03-23T05:04:52.268Z,81.48
2023-03-23T05:07:21.671Z,81.52
2023-03-23T05:09:54.041Z,81.70
2023-03-23T05:12:23.474Z,81.61
2023-03-23T05:14:56.595Z,81.61
2023-03-23T05:17:26.246Z,81.63
2023-03-23T05:19:57.860Z,81.75
2023-03-23T05:22:29.754Z,81.63
2023-03-23T05:25:04.441Z,81.84
2023-03-23T05:27:34.544Z,82.25
2023-03-23T05:30:05.142Z,82.37
2023-03-23T05:32:34.553Z,82.40
2023-03-23T05:35:04.832Z,82.29
2023-03-23T05:37:34.322Z,82.28
2023-03-23T05:40:08.169Z,82.32
2023-03-23T05:42:38.538Z,82.39
2023-03-23T05:45:19.295Z,82.57
2023-03-23T05:47:50.372Z,82.61
2023-03-23T05:50:20.085Z,82.77
2023-03-23T05:52:49.887Z,82.71
2023-03-23T05:55:46.353Z,83.04
2023-03-23T05:58:16.158Z,83.21
2023-03-23T06:00:46.505Z,83.04
2023-03-23T06:03:16.806Z,83.29
2023-03-23T06:05:51.541Z,83.21
2023-03-23T06:08:20.970Z,83.48
2023-03-23T06:10:53.192Z,83.52
2023-03-23T06:13:22.660Z,83.53
2023-03-23T06:15:59.216Z,83.80
2023-03-23T06:18:30.164Z,83.62
2023-03-23T06:20:59.854Z,83.56
2023-03-23T06:23:30.300Z,83.59
2023-03-23T06:26:06.771Z,83.64
2023-03-23T06:28:36.931Z,83.46
2023-03-23T06:31:09.416Z,83.61
2023-03-23T06:33:42.110Z,83.69
2023-03-23T06:36:13.372Z,84.10
2023-03-23T06:38:42.813Z,84.46
2023-03-23T06:41:15.126Z,84.37
2023-03-23T06:43:45.303Z,84.79
2023-03-23T06:46:14.780Z,85.10
2023-03-23T06:48:44.689Z,85.11
2023-03-23T06:51:14.286Z,85.23
2023-03-23T06:53:44.001Z,85.25
2023-03-23T06:56:16.458Z,85.27
2023-03-23T06:58:48.998Z,85.30
2023-03-23T07:01:18.657Z,85.22
2023-03-23T07:03:48.276Z,85.17
2023-03-23T07:06:17.999Z,85.33
2023-03-23T07:08:47.770Z,85.31
2023-03-23T07:11:19.973Z,85.32
2023-03-23T07:13:51.084Z,85.44
2023-03-23T07:16:20.733Z,85.48
2023-03-23T07:18:50.333Z,85.18
2023-03-23T07:21:20.139Z,85.37
2023-03-23T07:23:49.626Z,85.60
2023-03-23T07:26:22.873Z,85.47
2023-03-23T07:28:55.723Z,85.31
2023-03-23T07:31:29.884Z,85.61
2023-03-23T07:34:02.638Z,86.24
2023-03-23T07:36:34.465Z,85.97
2023-03-23T07:39:04.158Z,86.10
2023-03-23T07:41:36.891Z,86.19
2023-03-23T07:44:23.248Z,86.65
2023-03-23T07:46:54.648Z,86.77
2023-03-23T07:49:24.011Z,86.63
2023-03-23T07:51:53.505Z,86.60
2023-03-23T07:54:27.159Z,86.74
2023-03-23T07:57:00.914Z,86.91
2023-03-23T07:59:30.578Z,86.96
2023-03-23T08:02:00.186Z,87.01
2023-03-23T08:04:38.589Z,86.85
2023-03-23T08:07:13.545Z,86.92
